Isle La Motte, VT (05463)

8:20 PM EST on February 08, 2016 (GMT -0500)
Lake Shore Road, Chazy | | Change Station
CLOSE
Current Station
Personal Weather Station
Location: Chazy, NY
Elevation: 95 ft
Nearby Weather Stations

Elev 95 ft 44.92 °N, 73.38 °W | Updated 11 minutes ago

Overcast
Overcast
23.0 °F
Feels Like 14 °F
N
7.8
Wind Variable Wind from NE

Today
High -- | Low -- °F
--% Chance of Precip.
Yesterday
High -- | Low -- °F
Precip. -- in
Pressure 29.84 in
Visibility 10.0 miles
Clouds Mostly Cloudy 4100 ft
Mostly Cloudy 5000 ft
Overcast 5500 ft
Windchill 14 °F
Dew Point 11 °F
Humidity 59%
Rainfall 0.00 in
Snow Depth Not available.
7:04 AM 5:10 PM
New Moon, 0% visible
METAR KFSO 090115Z AUTO 08008KT 10SM BKN041 BKN050 OVC055 M04/M15 A2984 RMK AO2 T10431146
Pressure 29.84 in
Visibility 10.0 miles
Clouds Mostly Cloudy 4100 ft
Mostly Cloudy 5000 ft
Overcast 5500 ft
Windchill 14 °F
Dew Point 11 °F
Humidity 59%
Rainfall 0.00 in
Snow Depth Not available.
7:04 AM 5:10 PM
New Moon, 0% visible
METAR KFSO 090115Z AUTO 08008KT 10SM BKN041 BKN050 OVC055 M04/M15 A2984 RMK AO2 T10431146

10-Day Weather Forecast

Almanac

Astronomy

Feb. 08, 2016 Rise Set
Actual Time
Civil Twilight
Nautical Twilight
Astronomical Twilight
Moon
Length of Visible Light
Length of Day
Tomorrow will be .
, % of the Moon is Illuminated

Today's Extremes

State Highs State Lows

Community

WunderPhotos

Upload Photos

1,891,527 photos uploaded!

WunderBlog® & News

Nearby

Air Quality

  Air Quality AQ Index Pollutant
Not available.

Snow Depth

Station Depth Elevation

Earthquake Activity

City Distance Mag. Time & Date
Minimum magnitude displayed is 2.5.

Coastal Water Temperatures

Place Temperature

Stations

Nearby Weather Stations

Station Location Temp. Windchill Dew Point Humidity Wind Precip. Elev Updated Type
                   

Watches & Warnings

There are currently no watches in effect.